sensor_id;sensor_type;location;lat;lon;timestamp;temperature;humidity
61641;HTU21D;62201;49.966;8.342;2024-03-17T00:00:42;7.60;108.69
61641;HTU21D;62201;49.966;8.342;2024-03-17T00:03:07;7.56;109.33
61641;HTU21D;62201;49.966;8.342;2024-03-17T00:05:37;7.52;109.52
61641;HTU21D;62201;49.966;8.342;2024-03-17T00:08:03;7.62;108.54
61641;HTU21D;62201;49.966;8.342;2024-03-17T00:10:33;7.53;108.64
61641;HTU21D;62201;49.966;8.342;2024-03-17T00:12:59;7.52;109.39
61641;HTU21D;62201;49.966;8.342;2024-03-17T00:15:25;7.42;109.10
61641;HTU21D;62201;49.966;8.342;2024-03-17T00:17:50;7.41;109.52
61641;HTU21D;62201;49.966;8.342;2024-03-17T00:20:16;7.38;109.62
61641;HTU21D;62201;49.966;8.342;2024-03-17T00:22:47;7.52;109.51
61641;HTU21D;62201;49.966;8.342;2024-03-17T00:25:13;7.67;108.32
61641;HTU21D;62201;49.966;8.342;2024-03-17T00:27:38;7.54;108.45
61641;HTU21D;62201;49.966;8.342;2024-03-17T00:30:07;7.39;109.92
61641;HTU21D;62201;49.966;8.342;2024-03-17T00:32:37;7.54;108.92
61641;HTU21D;62201;49.966;8.342;2024-03-17T00:35:03;7.47;109.55
61641;HTU21D;62201;49.966;8.342;2024-03-17T00:37:29;7.35;110.89
61641;HTU21D;62201;49.966;8.342;2024-03-17T00:39:55;7.31;110.84
61641;HTU21D;62201;49.966;8.342;2024-03-17T00:42:20;7.19;111.94
61641;HTU21D;62201;49.966;8.342;2024-03-17T00:44:45;7.14;113.35
61641;HTU21D;62201;49.966;8.342;2024-03-17T00:47:11;7.23;112.35
61641;HTU21D;62201;49.966;8.342;2024-03-17T00:49:36;7.25;112.06
61641;HTU21D;62201;49.966;8.342;2024-03-17T00:52:02;7.25;111.71
61641;HTU21D;62201;49.966;8.342;2024-03-17T00:54:27;7.13;112.45
61641;HTU21D;62201;49.966;8.342;2024-03-17T00:56:52;7.02;113.54
61641;HTU21D;62201;49.966;8.342;2024-03-17T00:59:18;7.05;113.32
61641;HTU21D;62201;49.966;8.342;2024-03-17T01:01:43;7.02;112.92
61641;HTU21D;62201;49.966;8.342;2024-03-17T01:04:09;6.97;113.56
61641;HTU21D;62201;49.966;8.342;2024-03-17T01:06:34;6.94;113.90
61641;HTU21D;62201;49.966;8.342;2024-03-17T01:09:00;6.97;113.58
61641;HTU21D;62201;49.966;8.342;2024-03-17T01:11:25;6.67;115.88
61641;HTU21D;62201;49.966;8.342;2024-03-17T01:13:51;6.52;117.61
61641;HTU21D;62201;49.966;8.342;2024-03-17T01:16:16;6.33;118.99
61641;HTU21D;62201;49.966;8.342;2024-03-17T01:18:41;6.36;118.99
61641;HTU21D;62201;49.966;8.342;2024-03-17T01:21:08;6.51;118.99
61641;HTU21D;62201;49.966;8.342;2024-03-17T01:23:34;6.36;118.99
61641;HTU21D;62201;49.966;8.342;2024-03-17T01:25:59;6.16;118.99
61641;HTU21D;62201;49.966;8.342;2024-03-17T01:28:24;6.02;118.99
61641;HTU21D;62201;49.966;8.342;2024-03-17T01:30:51;6.15;118.99
61641;HTU21D;62201;49.966;8.342;2024-03-17T01:33:17;5.95;118.99
61641;HTU21D;62201;49.966;8.342;2024-03-17T01:35:43;5.78;118.99
61641;HTU21D;62201;49.966;8.342;2024-03-17T01:38:08;5.78;118.99
61641;HTU21D;62201;49.966;8.342;2024-03-17T01:40:35;5.77;118.99
61641;HTU21D;62201;49.966;8.342;2024-03-17T01:43:01;5.79;118.99
61641;HTU21D;62201;49.966;8.342;2024-03-17T01:45:31;5.71;118.99
61641;HTU21D;62201;49.966;8.342;2024-03-17T01:47:58;5.62;118.99
61641;HTU21D;62201;49.966;8.342;2024-03-17T01:50:35;5.69;118.99
61641;HTU21D;62201;49.966;8.342;2024-03-17T01:53:03;5.53;118.99
61641;HTU21D;62201;49.966;8.342;2024-03-17T01:55:34;5.38;118.99
61641;HTU21D;62201;49.966;8.342;2024-03-17T01:58:00;5.48;118.99
61641;HTU21D;62201;49.966;8.342;2024-03-17T02:00:26;5.43;118.99
61641;HTU21D;62201;49.966;8.342;2024-03-17T02:02:52;5.37;118.99
61641;HTU21D;62201;49.966;8.342;2024-03-17T02:05:18;5.34;118.99
61641;HTU21D;62201;49.966;8.342;2024-03-17T02:07:43;5.27;118.99
61641;HTU21D;62201;49.966;8.342;2024-03-17T02:10:09;5.59;118.99
61641;HTU21D;62201;49.966;8.342;2024-03-17T02:12:35;5.70;118.99
61641;HTU21D;62201;49.966;8.342;2024-03-17T02:15:01;5.68;118.99
61641;HTU21D;62201;49.966;8.342;2024-03-17T02:17:30;5.68;118.99
61641;HTU21D;62201;49.966;8.342;2024-03-17T02:19:56;5.72;118.99
61641;HTU21D;62201;49.966;8.342;2024-03-17T02:22:21;5.78;118.99
61641;HTU21D;62201;49.966;8.342;2024-03-17T02:24:47;5.82;118.99
61641;HTU21D;62201;49.966;8.342;2024-03-17T02:27:12;5.70;118.99
61641;HTU21D;62201;49.966;8.342;2024-03-17T02:29:38;5.64;118.99
61641;HTU21D;62201;49.966;8.342;2024-03-17T02:32:07;5.63;118.99
61641;HTU21D;62201;49.966;8.342;2024-03-17T02:34:34;5.64;118.99
61641;HTU21D;62201;49.966;8.342;2024-03-17T02:37:00;5.74;118.99
61641;HTU21D;62201;49.966;8.342;2024-03-17T02:39:26;5.68;118.99
61641;HTU21D;62201;49.966;8.342;2024-03-17T02:42:04;5.67;118.99
61641;HTU21D;62201;49.966;8.342;2024-03-17T02:44:31;5.67;118.99
61641;HTU21D;62201;49.966;8.342;2024-03-17T02:47:00;5.67;118.99
61641;HTU21D;62201;49.966;8.342;2024-03-17T02:49:27;5.57;118.99
61641;HTU21D;62201;49.966;8.342;2024-03-17T02:51:53;5.52;118.99
61641;HTU21D;62201;49.966;8.342;2024-03-17T02:54:20;5.49;118.99
61641;HTU21D;62201;49.966;8.342;2024-03-17T02:56:45;5.46;118.99
61641;HTU21D;62201;49.966;8.342;2024-03-17T02:59:11;5.47;118.99
61641;HTU21D;62201;49.966;8.342;2024-03-17T03:01:37;5.50;118.99
61641;HTU21D;62201;49.966;8.342;2024-03-17T03:04:02;5.42;118.99
61641;HTU21D;62201;49.966;8.342;2024-03-17T03:06:28;5.42;118.99
61641;HTU21D;62201;49.966;8.342;2024-03-17T03:08:53;5.38;118.99
61641;HTU21D;62201;49.966;8.342;2024-03-17T03:11:18;5.42;118.99
61641;HTU21D;62201;49.966;8.342;2024-03-17T03:13:44;5.22;118.99
61641;HTU21D;62201;49.966;8.342;2024-03-17T03:16:13;5.00;118.99
61641;HTU21D;62201;49.966;8.342;2024-03-17T03:18:43;4.80;118.99
61641;HTU21D;62201;49.966;8.342;2024-03-17T03:21:09;4.98;118.99
61641;HTU21D;62201;49.966;8.342;2024-03-17T03:23:36;5.13;118.99
61641;HTU21D;62201;49.966;8.342;2024-03-17T03:26:03;5.13;118.99
61641;HTU21D;62201;49.966;8.342;2024-03-17T03:28:30;4.96;118.99
61641;HTU21D;62201;49.966;8.342;2024-03-17T03:30:56;4.71;118.99
61641;HTU21D;62201;49.966;8.342;2024-03-17T03:33:21;4.54;118.99
61641;HTU21D;62201;49.966;8.342;2024-03-17T03:35:47;4.54;118.99
61641;HTU21D;62201;49.966;8.342;2024-03-17T03:38:13;4.57;118.99
61641;HTU21D;62201;49.966;8.342;2024-03-17T03:40:40;4.49;118.99
61641;HTU21D;62201;49.966;8.342;2024-03-17T03:43:07;4.54;118.99
61641;HTU21D;62201;49.966;8.342;2024-03-17T03:45:33;4.50;118.99
61641;HTU21D;62201;49.966;8.342;2024-03-17T03:47:59;4.41;118.99
61641;HTU21D;62201;49.966;8.342;2024-03-17T03:50:24;4.47;118.99
61641;HTU21D;62201;49.966;8.342;2024-03-17T03:52:49;4.41;118.99
61641;HTU21D;62201;49.966;8.342;2024-03-17T03:55:16;4.69;118.99
61641;HTU21D;62201;49.966;8.342;2024-03-17T03:57:43;4.44;118.99
61641;HTU21D;62201;49.966;8.342;2024-03-17T04:00:11;4.30;118.99
61641;HTU21D;62201;49.966;8.342;2024-03-17T04:02:41;4.14;118.99
61641;HTU21D;62201;49.966;8.342;2024-03-17T04:05:07;4.24;118.99
61641;HTU21D;62201;49.966;8.342;2024-03-17T04:07:33;4.36;118.99
61641;HTU21D;62201;49.966;8.342;2024-03-17T04:09:59;4.19;118.99
61641;HTU21D;62201;49.966;8.342;2024-03-17T04:12:25;4.38;118.99
61641;HTU21D;62201;49.966;8.342;2024-03-17T04:14:51;4.36;118.99
61641;HTU21D;62201;49.966;8.342;2024-03-17T04:17:19;4.42;118.99
61641;HTU21D;62201;49.966;8.342;2024-03-17T04:19:49;4.52;118.99
61641;HTU21D;62201;49.966;8.342;2024-03-17T04:22:15;4.56;118.99
61641;HTU21D;62201;49.966;8.342;2024-03-17T04:24:48;4.57;118.99
61641;HTU21D;62201;49.966;8.342;2024-03-17T04:27:21;4.54;118.99
61641;HTU21D;62201;49.966;8.342;2024-03-17T04:29:47;4.52;118.99
61641;HTU21D;62201;49.966;8.342;2024-03-17T04:32:15;4.56;118.99
61641;HTU21D;62201;49.966;8.342;2024-03-17T04:34:41;4.50;118.99
61641;HTU21D;62201;49.966;8.342;2024-03-17T04:37:08;4.46;118.99
61641;HTU21D;62201;49.966;8.342;2024-03-17T04:39:34;4.44;118.99
61641;HTU21D;62201;49.966;8.342;2024-03-17T04:41:59;4.42;118.99
61641;HTU21D;62201;49.966;8.342;2024-03-17T04:44:25;4.38;118.99
61641;HTU21D;62201;49.966;8.342;2024-03-17T04:46:50;4.34;118.99
61641;HTU21D;62201;49.966;8.342;2024-03-17T04:49:15;4.42;118.99
61641;HTU21D;62201;49.966;8.342;2024-03-17T04:51:41;4.44;118.99
61641;HTU21D;62201;49.966;8.342;2024-03-17T04:54:06;4.38;118.99
61641;HTU21D;62201;49.966;8.342;2024-03-17T04:56:32;4.48;118.99
61641;HTU21D;62201;49.966;8.342;2024-03-17T04:58:58;4.44;118.99
61641;HTU21D;62201;49.966;8.342;2024-03-17T05:01:23;4.47;118.99
61641;HTU21D;62201;49.966;8.342;2024-03-17T05:03:52;4.54;118.99
61641;HTU21D;62201;49.966;8.342;2024-03-17T05:06:18;4.56;118.99
61641;HTU21D;62201;49.966;8.342;2024-03-17T05:08:43;4.66;118.99
61641;HTU21D;62201;49.966;8.342;2024-03-17T05:11:09;4.71;118.99
61641;HTU21D;62201;49.966;8.342;2024-03-17T05:13:36;4.69;118.99
61641;HTU21D;62201;49.966;8.342;2024-03-17T05:16:05;4.67;118.99
61641;HTU21D;62201;49.966;8.342;2024-03-17T05:18:31;4.67;118.99
61641;HTU21D;62201;49.966;8.342;2024-03-17T05:21:05;4.78;118.99
61641;HTU21D;62201;49.966;8.342;2024-03-17T05:23:33;4.80;118.99
61641;HTU21D;62201;49.966;8.342;2024-03-17T05:25:59;4.74;118.99
61641;HTU21D;62201;49.966;8.342;2024-03-17T05:28:26;4.74;118.99
61641;HTU21D;62201;49.966;8.342;2024-03-17T05:30:52;4.88;118.99
61641;HTU21D;62201;49.966;8.342;2024-03-17T05:33:21;4.83;118.99
61641;HTU21D;62201;49.966;8.342;2024-03-17T05:35:56;4.86;118.99
61641;HTU21D;62201;49.966;8.342;2024-03-17T05:38:23;4.86;118.99
61641;HTU21D;62201;49.966;8.342;2024-03-17T05:41:03;4.86;118.99
61641;HTU21D;62201;49.966;8.342;2024-03-17T05:43:30;4.95;118.99
61641;HTU21D;62201;49.966;8.342;2024-03-17T05:45:59;5.02;118.99
61641;HTU21D;62201;49.966;8.342;2024-03-17T05:48:24;4.95;118.99
61641;HTU21D;62201;49.966;8.342;2024-03-17T05:50:50;4.94;118.99
61641;HTU21D;62201;49.966;8.342;2024-03-17T05:53:20;4.93;118.99
61641;HTU21D;62201;49.966;8.342;2024-03-17T05:55:46;5.03;118.99
61641;HTU21D;62201;49.966;8.342;2024-03-17T05:58:11;5.00;118.99
61641;HTU21D;62201;49.966;8.342;2024-03-17T06:00:38;4.91;118.99
61641;HTU21D;62201;49.966;8.342;2024-03-17T06:03:04;4.97;118.99
61641;HTU21D;62201;49.966;8.342;2024-03-17T06:05:33;5.04;118.99
61641;HTU21D;62201;49.966;8.342;2024-03-17T06:08:00;5.08;118.99
61641;HTU21D;62201;49.966;8.342;2024-03-17T06:10:25;5.05;118.99
61641;HTU21D;62201;49.966;8.342;2024-03-17T06:12:52;5.13;118.99
61641;HTU21D;62201;49.966;8.342;2024-03-17T06:15:17;5.09;118.99
61641;HTU21D;62201;49.966;8.342;2024-03-17T06:17:43;5.17;118.99
61641;HTU21D;62201;49.966;8.342;2024-03-17T06:20:08;5.18;118.99
61641;HTU21D;62201;49.966;8.342;2024-03-17T06:22:39;5.15;118.99
61641;HTU21D;62201;49.966;8.342;2024-03-17T06:25:05;5.26;118.99
61641;HTU21D;62201;49.966;8.342;2024-03-17T06:27:31;5.32;118.99
61641;HTU21D;62201;49.966;8.342;2024-03-17T06:29:58;5.28;118.92
61641;HTU21D;62201;49.966;8.342;2024-03-17T06:32:26;5.31;117.05
61641;HTU21D;62201;49.966;8.342;2024-03-17T06:34:51;5.51;116.99
61641;HTU21D;62201;49.966;8.342;2024-03-17T06:37:17;5.57;113.40
61641;HTU21D;62201;49.966;8.342;2024-03-17T06:39:45;5.67;113.16
61641;HTU21D;62201;49.966;8.342;2024-03-17T06:42:10;5.70;112.52
61641;HTU21D;62201;49.966;8.342;2024-03-17T06:44:37;5.62;111.23
61641;HTU21D;62201;49.966;8.342;2024-03-17T06:47:02;5.74;110.84
61641;HTU21D;62201;49.966;8.342;2024-03-17T06:49:28;5.77;108.63
61641;HTU21D;62201;49.966;8.342;2024-03-17T06:51:53;5.80;109.54
61641;HTU21D;62201;49.966;8.342;2024-03-17T06:54:18;5.84;109.47
61641;HTU21D;62201;49.966;8.342;2024-03-17T06:56:45;5.81;108.93
61641;HTU21D;62201;49.966;8.342;2024-03-17T06:59:10;5.83;108.79
61641;HTU21D;62201;49.966;8.342;2024-03-17T07:01:35;5.93;109.30
61641;HTU21D;62201;49.966;8.342;2024-03-17T07:04:01;5.83;109.85
61641;HTU21D;62201;49.966;8.342;2024-03-17T07:06:26;5.89;109.77
61641;HTU21D;62201;49.966;8.342;2024-03-17T07:08:52;6.09;109.72
61641;HTU21D;62201;49.966;8.342;2024-03-17T07:11:17;6.24;108.88
61641;HTU21D;62201;49.966;8.342;2024-03-17T07:13:43;6.12;108.86
61641;HTU21D;62201;49.966;8.342;2024-03-17T07:16:08;6.00;109.38
61641;HTU21D;62201;49.966;8.342;2024-03-17T07:18:35;6.27;107.79
61641;HTU21D;62201;49.966;8.342;2024-03-17T07:21:02;6.51;108.17
61641;HTU21D;62201;49.966;8.342;2024-03-17T07:23:29;6.44;107.27
61641;HTU21D;62201;49.966;8.342;2024-03-17T07:25:59;6.43;106.77
61641;HTU21D;62201;49.966;8.342;2024-03-17T07:28:26;6.59;106.75
61641;HTU21D;62201;49.966;8.342;2024-03-17T07:30:53;6.64;105.54
61641;HTU21D;62201;49.966;8.342;2024-03-17T07:33:19;7.17;103.49
61641;HTU21D;62201;49.966;8.342;2024-03-17T07:35:56;7.03;102.70
61641;HTU21D;62201;49.966;8.342;2024-03-17T07:38:29;7.33;101.82
61641;HTU21D;62201;49.966;8.342;2024-03-17T07:43:22;7.26;101.60
61641;HTU21D;62201;49.966;8.342;2024-03-17T07:46:03;7.49;99.55
61641;HTU21D;62201;49.966;8.342;2024-03-17T07:48:35;7.12;100.48
61641;HTU21D;62201;49.966;8.342;2024-03-17T07:51:04;7.53;99.50
61641;HTU21D;62201;49.966;8.342;2024-03-17T07:53:34;7.70;97.41
61641;HTU21D;62201;49.966;8.342;2024-03-17T07:56:01;7.60;98.29
61641;HTU21D;62201;49.966;8.342;2024-03-17T07:58:29;7.83;97.42
61641;HTU21D;62201;49.966;8.342;2024-03-17T08:00:58;8.23;95.71
61641;HTU21D;62201;49.966;8.342;2024-03-17T08:03:25;8.12;95.33
61641;HTU21D;62201;49.966;8.342;2024-03-17T08:05:51;8.23;94.91
61641;HTU21D;62201;49.966;8.342;2024-03-17T08:08:17;8.59;93.08
61641;HTU21D;62201;49.966;8.342;2024-03-17T08:10:44;8.81;91.67
61641;HTU21D;62201;49.966;8.342;2024-03-17T08:13:10;9.24;90.98
61641;HTU21D;62201;49.966;8.342;2024-03-17T08:15:36;9.34;88.52
61641;HTU21D;62201;49.966;8.342;2024-03-17T08:18:02;9.94;85.16
61641;HTU21D;62201;49.966;8.342;2024-03-17T08:20:29;10.51;83.61
61641;HTU21D;62201;49.966;8.342;2024-03-17T08:22:54;10.36;83.41
61641;HTU21D;62201;49.966;8.342;2024-03-17T08:25:20;9.84;83.07
61641;HTU21D;62201;49.966;8.342;2024-03-17T08:27:45;10.03;83.81
61641;HTU21D;62201;49.966;8.342;2024-03-17T08:30:12;9.49;84.48
61641;HTU21D;62201;49.966;8.342;2024-03-17T08:32:38;10.15;82.52
61641;HTU21D;62201;49.966;8.342;2024-03-17T08:35:04;9.78;82.98
61641;HTU21D;62201;49.966;8.342;2024-03-17T08:37:31;9.99;82.11
61641;HTU21D;62201;49.966;8.342;2024-03-17T08:39:56;10.13;81.10
61641;HTU21D;62201;49.966;8.342;2024-03-17T08:42:22;9.45;83.31
61641;HTU21D;62201;49.966;8.342;2024-03-17T08:44:47;9.91;81.36
61641;HTU21D;62201;49.966;8.342;2024-03-17T08:47:12;10.51;80.28
61641;HTU21D;62201;49.966;8.342;2024-03-17T08:49:38;10.77;79.86
61641;HTU21D;62201;49.966;8.342;2024-03-17T08:52:03;9.78;83.52
61641;HTU21D;62201;49.966;8.342;2024-03-17T08:54:29;10.00;82.76
61641;HTU21D;62201;49.966;8.342;2024-03-17T08:56:54;9.72;83.68
61641;HTU21D;62201;49.966;8.342;2024-03-17T08:59:19;9.99;79.64
61641;HTU21D;62201;49.966;8.342;2024-03-17T09:01:45;10.56;78.81
61641;HTU21D;62201;49.966;8.342;2024-03-17T09:04:10;10.08;78.51
61641;HTU21D;62201;49.966;8.342;2024-03-17T09:06:36;10.55;77.64
61641;HTU21D;62201;49.966;8.342;2024-03-17T09:09:02;11.13;75.99
61641;HTU21D;62201;49.966;8.342;2024-03-17T09:11:28;11.12;76.95
61641;HTU21D;62201;49.966;8.342;2024-03-17T09:13:54;11.60;76.71
61641;HTU21D;62201;49.966;8.342;2024-03-17T09:16:20;11.85;76.42
61641;HTU21D;62201;49.966;8.342;2024-03-17T09:18:47;10.64;77.78
61641;HTU21D;62201;49.966;8.342;2024-03-17T09:21:14;11.36;76.35
61641;HTU21D;62201;49.966;8.342;2024-03-17T09:23:41;11.33;75.35
61641;HTU21D;62201;49.966;8.342;2024-03-17T09:26:10;11.17;74.45
61641;HTU21D;62201;49.966;8.342;2024-03-17T09:28:43;11.88;72.60
61641;HTU21D;62201;49.966;8.342;2024-03-17T09:31:11;12.37;69.12
61641;HTU21D;62201;49.966;8.342;2024-03-17T09:33:37;11.30;72.69
61641;HTU21D;62201;49.966;8.342;2024-03-17T09:36:07;11.28;72.92
61641;HTU21D;62201;49.966;8.342;2024-03-17T09:38:34;11.77;70.10
61641;HTU21D;62201;49.966;8.342;2024-03-17T09:40:59;11.72;69.89
61641;HTU21D;62201;49.966;8.342;2024-03-17T09:43:29;11.64;71.42
61641;HTU21D;62201;49.966;8.342;2024-03-17T09:45:55;12.23;70.04
61641;HTU21D;62201;49.966;8.342;2024-03-17T09:48:23;12.62;66.58
61641;HTU21D;62201;49.966;8.342;2024-03-17T09:50:57;13.21;64.94
61641;HTU21D;62201;49.966;8.342;2024-03-17T09:53:30;14.41;61.41
61641;HTU21D;62201;49.966;8.342;2024-03-17T09:55:58;13.33;63.08
61641;HTU21D;62201;49.966;8.342;2024-03-17T09:58:24;13.85;61.25
61641;HTU21D;62201;49.966;8.342;2024-03-17T10:00:49;13.90;62.27
61641;HTU21D;62201;49.966;8.342;2024-03-17T10:03:41;12.35;69.03
61641;HTU21D;62201;49.966;8.342;2024-03-17T10:06:08;15.10;61.88
61641;HTU21D;62201;49.966;8.342;2024-03-17T10:11:12;12.60;68.81
61641;HTU21D;62201;49.966;8.342;2024-03-17T10:13:38;12.05;69.71
61641;HTU21D;62201;49.966;8.342;2024-03-17T10:16:03;13.86;63.87
61641;HTU21D;62201;49.966;8.342;2024-03-17T10:18:29;14.25;62.46
61641;HTU21D;62201;49.966;8.342;2024-03-17T10:20:55;14.69;62.26
61641;HTU21D;62201;49.966;8.342;2024-03-17T10:23:21;15.57;59.40
61641;HTU21D;62201;49.966;8.342;2024-03-17T10:25:47;13.24;64.83
61641;HTU21D;62201;49.966;8.342;2024-03-17T10:28:14;13.91;64.30
61641;HTU21D;62201;49.966;8.342;2024-03-17T10:30:41;14.54;61.79
61641;HTU21D;62201;49.966;8.342;2024-03-17T10:33:08;13.47;64.38
61641;HTU21D;62201;49.966;8.342;2024-03-17T10:35:48;14.39;63.15
61641;HTU21D;62201;49.966;8.342;2024-03-17T10:38:14;13.36;65.04
61641;HTU21D;62201;49.966;8.342;2024-03-17T10:40:39;12.96;65.40
61641;HTU21D;62201;49.966;8.342;2024-03-17T10:43:05;13.69;63.74
61641;HTU21D;62201;49.966;8.342;2024-03-17T10:45:32;12.95;65.12
61641;HTU21D;62201;49.966;8.342;2024-03-17T10:48:07;13.96;63.41
61641;HTU21D;62201;49.966;8.342;2024-03-17T10:50:36;13.38;63.67
61641;HTU21D;62201;49.966;8.342;2024-03-17T10:53:04;12.52;67.53
61641;HTU21D;62201;49.966;8.342;2024-03-17T10:55:43;12.34;67.24
61641;HTU21D;62201;49.966;8.342;2024-03-17T10:58:22;12.07;69.00
61641;HTU21D;62201;49.966;8.342;2024-03-17T11:00:49;11.97;68.61
61641;HTU21D;62201;49.966;8.342;2024-03-17T11:03:16;12.05;69.80
61641;HTU21D;62201;49.966;8.342;2024-03-17T11:05:43;13.23;66.36
61641;HTU21D;62201;49.966;8.342;2024-03-17T11:08:14;12.47;67.93
61641;HTU21D;62201;49.966;8.342;2024-03-17T11:10:49;13.82;64.92
61641;HTU21D;62201;49.966;8.342;2024-03-17T11:13:28;14.39;62.71
61641;HTU21D;62201;49.966;8.342;2024-03-17T11:15:55;12.75;67.78
61641;HTU21D;62201;49.966;8.342;2024-03-17T11:21:02;13.50;65.88
61641;HTU21D;62201;49.966;8.342;2024-03-17T11:23:33;13.55;66.49
61641;HTU21D;62201;49.966;8.342;2024-03-17T11:25:59;15.53;62.05
61641;HTU21D;62201;49.966;8.342;2024-03-17T11:31:37;14.21;65.12
61641;HTU21D;62201;49.966;8.342;2024-03-17T11:34:06;14.59;63.24
61641;HTU21D;62201;49.966;8.342;2024-03-17T11:36:38;16.39;57.64
61641;HTU21D;62201;49.966;8.342;2024-03-17T11:39:08;15.95;59.60
61641;HTU21D;62201;49.966;8.342;2024-03-17T11:41:43;14.51;63.18
61641;HTU21D;62201;49.966;8.342;2024-03-17T11:46:44;15.52;60.90
61641;HTU21D;62201;49.966;8.342;2024-03-17T11:49:25;14.57;62.94
61641;HTU21D;62201;49.966;8.342;2024-03-17T11:51:52;14.19;65.51
61641;HTU21D;62201;49.966;8.342;2024-03-17T11:54:21;13.59;66.50
61641;HTU21D;62201;49.966;8.342;2024-03-17T11:56:51;14.44;62.21
61641;HTU21D;62201;49.966;8.342;2024-03-17T11:59:20;14.41;62.70
61641;HTU21D;62201;49.966;8.342;2024-03-17T12:01:47;13.05;67.75
61641;HTU21D;62201;49.966;8.342;2024-03-17T12:04:17;13.88;64.87
61641;HTU21D;62201;49.966;8.342;2024-03-17T12:06:51;14.51;63.03
61641;HTU21D;62201;49.966;8.342;2024-03-17T12:09:27;14.58;64.30
61641;HTU21D;62201;49.966;8.342;2024-03-17T12:12:11;14.07;65.40
61641;HTU21D;62201;49.966;8.342;2024-03-17T12:14:39;14.07;65.89
61641;HTU21D;62201;49.966;8.342;2024-03-17T12:17:07;15.65;61.81
61641;HTU21D;62201;49.966;8.342;2024-03-17T12:19:33;14.07;66.24
61641;HTU21D;62201;49.966;8.342;2024-03-17T12:21:59;15.18;62.41
61641;HTU21D;62201;49.966;8.342;2024-03-17T12:24:29;15.39;62.37
61641;HTU21D;62201;49.966;8.342;2024-03-17T12:26:56;14.27;66.68
61641;HTU21D;62201;49.966;8.342;2024-03-17T12:31:51;15.00;63.48
61641;HTU21D;62201;49.966;8.342;2024-03-17T12:34:18;14.29;67.76
61641;HTU21D;62201;49.966;8.342;2024-03-17T12:36:44;13.30;68.92
61641;HTU21D;62201;49.966;8.342;2024-03-17T12:39:27;14.15;67.20
61641;HTU21D;62201;49.966;8.342;2024-03-17T12:42:05;13.78;66.70
61641;HTU21D;62201;49.966;8.342;2024-03-17T12:44:33;14.32;66.43
61641;HTU21D;62201;49.966;8.342;2024-03-17T12:47:00;13.65;68.69
61641;HTU21D;62201;49.966;8.342;2024-03-17T12:49:29;13.10;70.26
61641;HTU21D;62201;49.966;8.342;2024-03-17T12:51:56;13.06;70.54
61641;HTU21D;62201;49.966;8.342;2024-03-17T12:54:23;13.69;68.81
61641;HTU21D;62201;49.966;8.342;2024-03-17T12:56:50;13.03;71.51
61641;HTU21D;62201;49.966;8.342;2024-03-17T12:59:41;13.34;70.10
61641;HTU21D;62201;49.966;8.342;2024-03-17T13:02:25;13.19;71.68
61641;HTU21D;62201;49.966;8.342;2024-03-17T13:07:31;13.17;71.65
61641;HTU21D;62201;49.966;8.342;2024-03-17T13:09:57;13.47;70.45
61641;HTU21D;62201;49.966;8.342;2024-03-17T13:12:22;13.20;71.58
61641;HTU21D;62201;49.966;8.342;2024-03-17T13:14:47;13.29;71.55
61641;HTU21D;62201;49.966;8.342;2024-03-17T13:17:15;13.48;70.49
61641;HTU21D;62201;49.966;8.342;2024-03-17T13:19:45;14.43;67.29
61641;HTU21D;62201;49.966;8.342;2024-03-17T13:22:11;14.27;68.68
61641;HTU21D;62201;49.966;8.342;2024-03-17T13:24:37;13.07;72.13
61641;HTU21D;62201;49.966;8.342;2024-03-17T13:27:02;13.65;70.45
61641;HTU21D;62201;49.966;8.342;2024-03-17T13:29:34;13.66;70.16
61641;HTU21D;62201;49.966;8.342;2024-03-17T13:32:02;13.76;69.82
61641;HTU21D;62201;49.966;8.342;2024-03-17T13:34:27;14.75;66.98
61641;HTU21D;62201;49.966;8.342;2024-03-17T13:36:53;14.50;67.49
61641;HTU21D;62201;49.966;8.342;2024-03-17T13:39:19;14.66;66.69
61641;HTU21D;62201;49.966;8.342;2024-03-17T13:41:46;14.25;68.26
61641;HTU21D;62201;49.966;8.342;2024-03-17T13:44:12;14.35;67.69
61641;HTU21D;62201;49.966;8.342;2024-03-17T13:46:38;14.52;67.68
61641;HTU21D;62201;49.966;8.342;2024-03-17T13:49:10;14.39;68.58
61641;HTU21D;62201;49.966;8.342;2024-03-17T13:51:36;14.42;68.87
61641;HTU21D;62201;49.966;8.342;2024-03-17T13:54:01;13.96;70.46
61641;HTU21D;62201;49.966;8.342;2024-03-17T13:56:27;13.47;71.83
61641;HTU21D;62201;49.966;8.342;2024-03-17T13:58:53;13.60;72.51
61641;HTU21D;62201;49.966;8.342;2024-03-17T14:01:18;13.60;71.83
61641;HTU21D;62201;49.966;8.342;2024-03-17T14:03:45;13.85;71.90
61641;HTU21D;62201;49.966;8.342;2024-03-17T14:06:11;14.08;70.48
61641;HTU21D;62201;49.966;8.342;2024-03-17T14:08:36;13.98;70.54
61641;HTU21D;62201;49.966;8.342;2024-03-17T14:11:02;14.05;70.11
61641;HTU21D;62201;49.966;8.342;2024-03-17T14:13:29;13.94;70.81
61641;HTU21D;62201;49.966;8.342;2024-03-17T14:15:58;13.79;70.38
61641;HTU21D;62201;49.966;8.342;2024-03-17T14:18:24;13.71;71.51
61641;HTU21D;62201;49.966;8.342;2024-03-17T14:20:50;13.69;72.33
61641;HTU21D;62201;49.966;8.342;2024-03-17T14:23:18;13.66;71.75
61641;HTU21D;62201;49.966;8.342;2024-03-17T14:25:43;13.58;72.46
61641;HTU21D;62201;49.966;8.342;2024-03-17T14:28:09;13.41;72.45
61641;HTU21D;62201;49.966;8.342;2024-03-17T14:30:34;13.53;72.31
61641;HTU21D;62201;49.966;8.342;2024-03-17T14:33:00;13.51;73.06
61641;HTU21D;62201;49.966;8.342;2024-03-17T14:35:25;13.55;72.52
61641;HTU21D;62201;49.966;8.342;2024-03-17T14:37:52;13.40;73.61
61641;HTU21D;62201;49.966;8.342;2024-03-17T14:40:19;13.65;73.34
61641;HTU21D;62201;49.966;8.342;2024-03-17T14:42:53;14.07;71.65
61641;HTU21D;62201;49.966;8.342;2024-03-17T14:45:21;13.82;72.05
61641;HTU21D;62201;49.966;8.342;2024-03-17T14:47:48;13.92;72.32
61641;HTU21D;62201;49.966;8.342;2024-03-17T14:50:14;13.96;72.24
61641;HTU21D;62201;49.966;8.342;2024-03-17T14:52:41;13.84;72.76
61641;HTU21D;62201;49.966;8.342;2024-03-17T14:55:08;14.07;71.89
61641;HTU21D;62201;49.966;8.342;2024-03-17T14:57:35;13.86;71.80
61641;HTU21D;62201;49.966;8.342;2024-03-17T15:00:02;13.78;72.32
61641;HTU21D;62201;49.966;8.342;2024-03-17T15:02:28;13.95;72.63
61641;HTU21D;62201;49.966;8.342;2024-03-17T15:04:54;14.04;71.22
61641;HTU21D;62201;49.966;8.342;2024-03-17T15:07:19;14.57;70.38
61641;HTU21D;62201;49.966;8.342;2024-03-17T15:09:45;14.57;69.54
61641;HTU21D;62201;49.966;8.342;2024-03-17T15:12:10;14.38;70.01
61641;HTU21D;62201;49.966;8.342;2024-03-17T15:14:35;14.88;68.91
61641;HTU21D;62201;49.966;8.342;2024-03-17T15:17:03;14.78;69.30
61641;HTU21D;62201;49.966;8.342;2024-03-17T15:19:28;15.16;67.91
61641;HTU21D;62201;49.966;8.342;2024-03-17T15:21:54;15.10;69.45
61641;HTU21D;62201;49.966;8.342;2024-03-17T15:24:19;15.43;68.80
61641;HTU21D;62201;49.966;8.342;2024-03-17T15:26:44;15.57;68.10
61641;HTU21D;62201;49.966;8.342;2024-03-17T15:29:11;16.15;66.93
61641;HTU21D;62201;49.966;8.342;2024-03-17T15:31:38;15.96;65.01
61641;HTU21D;62201;49.966;8.342;2024-03-17T15:34:03;15.77;66.02
61641;HTU21D;62201;49.966;8.342;2024-03-17T15:36:29;16.35;63.76